Time;durP1;ratioP1;P1;durP2;ratioP2;P2;SDS_P1;SDS_P2;PMS_P1;PMS_P2;Temp;Humidity;BMP_temperature;BMP_pressure;BME280_temperature;BME280_humidity;BME280_pressure;Samples;Min_cycle;Max_cycle;Signal;HPM_P1;HPM_P2
2023/01/11 00:00:14;;;;;;;14.15;6.50;;;;;;;;;;5081390;28;20098;-73
2023/01/11 00:02:41;;;;;;;9.80;7.47;;;;;;;;;;5082572;28;20056;-72
2023/01/11 00:05:08;;;;;;;12.45;7.60;;;;;;;;;;5080034;28;20713;-70
2023/01/11 00:07:34;;;;;;;12.55;7.40;;;;;;;;;;5083343;28;20055;-74
2023/01/11 00:10:03;;;;;;;9.32;7.65;;;;;;;;;;5081491;28;20061;-73
2023/01/11 00:12:30;;;;;;;8.45;6.57;;;;;;;;;;5082859;28;20215;-74
2023/01/11 00:14:56;;;;;;;12.68;7.82;;;;;;;;;;5081348;28;20049;-73
2023/01/11 00:17:22;;;;;;;8.73;6.65;;;;;;;;;;5082216;28;20053;-71
2023/01/11 00:19:49;;;;;;;9.90;7.20;;;;;;;;;;5084376;28;20053;-74
2023/01/11 00:22:15;;;;;;;10.68;7.72;;;;;;;;;;5086164;28;20489;-73
2023/01/11 00:24:41;;;;;;;8.25;6.70;;;;;;;;;;5083568;28;20047;-73
2023/01/11 00:27:08;;;;;;;9.70;6.63;;;;;;;;;;5085327;28;20055;-70
2023/01/11 00:29:34;;;;;;;14.23;6.68;;;;;;;;;;5085609;28;20052;-73
2023/01/11 00:32:00;;;;;;;9.00;6.93;;;;;;;;;;5086409;28;20064;-73
2023/01/11 00:34:26;;;;;;;10.35;7.03;;;;;;;;;;5085746;28;20432;-73
2023/01/11 00:36:53;;;;;;;10.02;6.07;;;;;;;;;;5084325;28;20060;-71
2023/01/11 00:39:19;;;;;;;12.38;6.78;;;;;;;;;;5083694;28;20048;-75
2023/01/11 00:50:02;;;;;;;9.80;6.85;;;;;;;;;;5085666;28;20148;-70
2023/01/11 00:52:28;;;;;;;10.05;7.28;;;;;;;;;;5083745;28;20471;-72
2023/01/11 00:54:54;;;;;;;10.85;7.22;;;;;;;;;;5086060;28;20056;-75
2023/01/11 00:57:21;;;;;;;11.98;6.78;;;;;;;;;;5082426;28;20525;-73
2023/01/11 00:59:47;;;;;;;8.10;6.70;;;;;;;;;;5085792;28;20055;-72
2023/01/11 01:02:13;;;;;;;13.05;7.57;;;;;;;;;;5073068;28;20060;-70
2023/01/11 01:04:40;;;;;;;9.80;6.40;;;;;;;;;;5084691;28;20048;-71
2023/01/11 01:07:06;;;;;;;15.05;6.80;;;;;;;;;;5083871;28;20060;-72
2023/01/11 01:09:33;;;;;;;10.73;6.40;;;;;;;;;;5085415;28;20059;-74
2023/01/11 01:12:01;;;;;;;8.82;5.97;;;;;;;;;;5083635;28;20044;-72
2023/01/11 01:14:28;;;;;;;7.60;5.75;;;;;;;;;;5084989;28;20049;-73
2023/01/11 01:17:00;;;;;;;7.40;5.05;;;;;;;;;;5082893;28;20548;-73
2023/01/11 01:19:27;;;;;;;7.50;5.10;;;;;;;;;;5085745;28;20520;-72
2023/01/11 01:21:55;;;;;;;7.38;4.75;;;;;;;;;;5084484;28;20263;-72
2023/01/11 01:24:21;;;;;;;7.30;5.15;;;;;;;;;;5083586;28;20512;-72
2023/01/11 01:26:48;;;;;;;6.82;4.60;;;;;;;;;;5083760;28;20048;-73
2023/01/11 01:29:14;;;;;;;4.88;4.20;;;;;;;;;;5085546;28;20527;-73
2023/01/11 01:31:41;;;;;;;6.35;4.35;;;;;;;;;;5083811;28;20044;-72
2023/01/11 01:34:08;;;;;;;5.78;4.28;;;;;;;;;;5085253;28;20521;-71
2023/01/11 01:36:34;;;;;;;6.07;4.75;;;;;;;;;;5084114;28;20049;-74
2023/01/11 01:39:02;;;;;;;5.75;3.97;;;;;;;;;;5081892;28;20049;-76
2023/01/11 01:41:28;;;;;;;4.90;4.05;;;;;;;;;;5084914;28;20052;-74
2023/01/11 01:43:56;;;;;;;3.92;3.42;;;;;;;;;;5082078;28;20045;-72
2023/01/11 01:46:25;;;;;;;4.53;3.95;;;;;;;;;;5082940;28;20048;-74
2023/01/11 01:48:54;;;;;;;5.10;3.40;;;;;;;;;;5084177;28;20055;-74
2023/01/11 01:51:24;;;;;;;6.72;3.80;;;;;;;;;;5083096;28;20044;-73
2023/01/11 01:53:52;;;;;;;4.78;3.20;;;;;;;;;;5084097;28;20048;-75
2023/01/11 01:56:24;;;;;;;8.20;3.47;;;;;;;;;;5083978;28;20056;-73
2023/01/11 01:58:53;;;;;;;4.28;3.60;;;;;;;;;;5084092;28;20776;-75
2023/01/11 02:04:07;;;;;;;5.38;2.95;;;;;;;;;;5085621;28;20074;-73
2023/01/11 02:06:33;;;;;;;3.45;2.78;;;;;;;;;;5082652;28;20049;-74
2023/01/11 02:09:10;;;;;;;4.90;3.30;;;;;;;;;;5066074;28;20513;-74
2023/01/11 02:11:42;;;;;;;3.55;2.65;;;;;;;;;;5081953;28;20552;-73
2023/01/11 02:14:11;;;;;;;3.33;3.00;;;;;;;;;;5082853;28;20143;-73
2023/01/11 02:16:38;;;;;;;4.13;2.60;;;;;;;;;;5084051;28;20052;-73
2023/01/11 02:19:07;;;;;;;4.95;3.10;;;;;;;;;;5083407;28;20138;-72
2023/01/11 02:21:36;;;;;;;3.47;2.65;;;;;;;;;;5084319;28;20049;-72
2023/01/11 02:24:21;;;;;;;3.45;2.85;;;;;;;;;;5070903;28;20463;-73
2023/01/11 02:27:06;;;;;;;7.80;2.97;;;;;;;;;;5080922;28;20049;-73
2023/01/11 02:29:54;;;;;;;4.63;2.75;;;;;;;;;;5066634;28;20430;-72
2023/01/11 02:32:24;;;;;;;3.00;2.70;;;;;;;;;;5072595;28;20053;-71
2023/01/11 02:35:05;;;;;;;3.17;2.88;;;;;;;;;;5083048;28;20082;-70
2023/01/11 02:37:52;;;;;;;3.78;2.83;;;;;;;;;;5082478;28;20527;-73
2023/01/11 02:40:18;;;;;;;2.92;2.63;;;;;;;;;;5063702;28;20440;-71
2023/01/11 02:46:10;;;;;;;3.15;2.70;;;;;;;;;;5070204;28;20056;-73
2023/01/11 02:48:39;;;;;;;3.28;2.70;;;;;;;;;;5016451;28;20046;-75
2023/01/11 02:51:09;;;;;;;3.47;3.05;;;;;;;;;;5020586;28;20065;-74
2023/01/11 02:53:46;;;;;;;3.67;3.30;;;;;;;;;;5018524;28;20057;-73
2023/01/11 02:56:16;;;;;;;4.00;3.60;;;;;;;;;;5020264;28;20062;-73
2023/01/11 02:58:44;;;;;;;5.28;3.65;;;;;;;;;;5020102;28;20095;-71
2023/01/11 03:01:11;;;;;;;5.18;3.47;;;;;;;;;;5018968;28;20061;-73
2023/01/11 03:03:38;;;;;;;5.78;3.60;;;;;;;;;;5019733;28;20061;-72
2023/01/11 03:06:15;;;;;;;3.65;3.20;;;;;;;;;;5021374;28;20222;-70
2023/01/11 03:08:45;;;;;;;4.57;3.30;;;;;;;;;;5019758;28;20064;-73
2023/01/11 03:14:08;;;;;;;4.15;3.75;;;;;;;;;;4988142;28;20544;-71
2023/01/11 03:16:50;;;;;;;6.00;3.72;;;;;;;;;;5016901;28;20469;-73
2023/01/11 03:19:19;;;;;;;8.63;4.68;;;;;;;;;;5020621;28;20053;-75
2023/01/11 03:21:55;;;;;;;7.35;3.92;;;;;;;;;;5026071;28;20058;-72
2023/01/11 03:24:28;;;;;;;7.45;3.90;;;;;;;;;;5082557;28;20056;-73
2023/01/11 03:27:00;;;;;;;6.60;4.80;;;;;;;;;;5082679;28;20068;-73
2023/01/11 03:29:32;;;;;;;7.07;4.22;;;;;;;;;;5083362;28;20052;-72
2023/01/11 03:31:58;;;;;;;6.70;3.92;;;;;;;;;;5081790;28;20063;-73
2023/01/11 03:34:31;;;;;;;7.32;3.95;;;;;;;;;;5081584;28;20045;-72
2023/01/11 03:37:06;;;;;;;6.95;3.72;;;;;;;;;;5081644;28;20438;-71
2023/01/11 03:39:35;;;;;;;5.40;4.07;;;;;;;;;;5063884;28;20057;-74
2023/01/11 03:42:03;;;;;;;4.00;3.17;;;;;;;;;;5082476;28;20130;-71
2023/01/11 03:44:33;;;;;;;3.85;2.78;;;;;;;;;;5082026;28;20089;-72
2023/01/11 03:47:03;;;;;;;8.20;3.38;;;;;;;;;;5081211;28;20066;-70
2023/01/11 03:49:32;;;;;;;4.45;2.78;;;;;;;;;;5068769;28;20041;-70
2023/01/11 03:52:00;;;;;;;4.38;2.53;;;;;;;;;;5076676;28;20248;-74
2023/01/11 03:54:28;;;;;;;3.70;2.25;;;;;;;;;;5082706;28;20530;-73
2023/01/11 03:56:54;;;;;;;5.13;2.13;;;;;;;;;;5085818;28;20055;-73
2023/01/11 03:59:21;;;;;;;4.68;1.60;;;;;;;;;;5086581;28;20215;-74
2023/01/11 04:01:47;;;;;;;3.80;1.98;;;;;;;;;;5083811;28;20052;-75
2023/01/11 04:04:14;;;;;;;1.58;1.48;;;;;;;;;;5085084;28;20142;-74
2023/01/11 04:06:40;;;;;;;1.50;1.40;;;;;;;;;;5084645;28;20079;-71
2023/01/11 04:09:06;;;;;;;2.10;1.85;;;;;;;;;;5083578;28;20049;-72
2023/01/11 04:11:33;;;;;;;3.67;1.70;;;;;;;;;;5085336;28;20057;-72
2023/01/11 04:14:00;;;;;;;4.13;1.65;;;;;;;;;;5086703;28;20059;-75
2023/01/11 04:16:26;;;;;;;4.95;2.17;;;;;;;;;;5085725;28;20136;-75
2023/01/11 04:18:53;;;;;;;5.30;2.25;;;;;;;;;;5085299;28;20139;-75
2023/01/11 04:21:19;;;;;;;6.57;2.40;;;;;;;;;;5085261;28;20045;-76
2023/01/11 04:23:45;;;;;;;3.95;3.33;;;;;;;;;;5085294;28;20098;-76
2023/01/11 04:26:11;;;;;;;4.97;3.22;;;;;;;;;;5086434;28;20082;-75
2023/01/11 04:28:38;;;;;;;4.20;3.15;;;;;;;;;;5084539;28;20052;-77
2023/01/11 04:31:04;;;;;;;11.07;3.70;;;;;;;;;;5086545;28;20100;-74
2023/01/11 04:33:30;;;;;;;7.15;3.70;;;;;;;;;;5085067;28;20053;-72
2023/01/11 04:35:57;;;;;;;5.88;3.58;;;;;;;;;;5085108;28;20511;-73
2023/01/11 04:38:25;;;;;;;5.40;3.60;;;;;;;;;;5085383;28;20052;-72
2023/01/11 04:42:17;;;;;;;12.20;4.80;;;;;;;;;;5082711;28;20056;-74
2023/01/11 04:43:38;;;;;;;11.55;4.88;;;;;;;;;;5078962;28;20052;-75
2023/01/11 04:46:05;;;;;;;13.25;4.82;;;;;;;;;;5086126;28;20055;-73
2023/01/11 04:48:32;;;;;;;10.43;5.30;;;;;;;;;;5085515;28;20111;-72
2023/01/11 04:50:58;;;;;;;7.40;4.90;;;;;;;;;;5083927;28;20053;-73
2023/01/11 04:53:25;;;;;;;16.17;5.38;;;;;;;;;;5083492;28;20056;-71
2023/01/11 04:55:52;;;;;;;12.25;4.85;;;;;;;;;;5081885;28;20083;-74
2023/01/11 04:58:18;;;;;;;12.55;5.07;;;;;;;;;;5085235;28;20044;-74
2023/01/11 05:00:44;;;;;;;16.88;4.90;;;;;;;;;;5086065;28;20045;-72
2023/01/11 05:03:11;;;;;;;11.93;4.78;;;;;;;;;;5067240;28;20056;-72
2023/01/11 05:05:38;;;;;;;14.35;5.20;;;;;;;;;;5082178;28;20084;-75
2023/01/11 05:08:05;;;;;;;14.27;5.28;;;;;;;;;;5081510;28;20563;-74
2023/01/11 05:10:31;;;;;;;13.75;4.65;;;;;;;;;;5085564;28;20064;-75
2023/01/11 05:12:57;;;;;;;15.15;4.18;;;;;;;;;;5083914;28;20515;-75
2023/01/11 05:15:24;;;;;;;13.30;3.47;;;;;;;;;;5083295;28;20049;-74
2023/01/11 05:17:50;;;;;;;17.08;3.60;;;;;;;;;;5085305;28;20151;-74
2023/01/11 05:20:16;;;;;;;13.82;3.55;;;;;;;;;;5083430;28;20138;-74
2023/01/11 05:22:43;;;;;;;10.25;3.30;;;;;;;;;;5085660;28;20456;-72
2023/01/11 05:25:09;;;;;;;15.63;4.20;;;;;;;;;;5083542;28;20048;-70
2023/01/11 05:27:35;;;;;;;10.82;4.07;;;;;;;;;;5084760;28;20408;-75
2023/01/11 05:30:02;;;;;;;17.90;3.58;;;;;;;;;;5083139;28;20040;-74
2023/01/11 05:32:28;;;;;;;16.13;3.10;;;;;;;;;;5081129;28;20165;-73
2023/01/11 05:34:55;;;;;;;19.17;2.88;;;;;;;;;;5084419;28;20059;-74
2023/01/11 05:37:21;;;;;;;17.08;3.25;;;;;;;;;;5084198;28;20045;-74
2023/01/11 05:39:47;;;;;;;23.08;3.85;;;;;;;;;;5083315;28;20141;-73
2023/01/11 05:42:15;;;;;;;15.10;2.92;;;;;;;;;;5081434;28;20115;-74
2023/01/11 05:47:27;;;;;;;20.75;3.00;;;;;;;;;;5081985;28;20048;-72
2023/01/11 05:49:53;;;;;;;18.63;3.05;;;;;;;;;;5084328;28;20260;-74
2023/01/11 05:52:19;;;;;;;14.40;3.15;;;;;;;;;;5087115;28;20045;-73
2023/01/11 05:54:45;;;;;;;15.43;3.13;;;;;;;;;;5094037;28;20069;-75
2023/01/11 05:57:12;;;;;;;17.67;3.78;;;;;;;;;;5074025;28;20528;-72
2023/01/11 05:59:39;;;;;;;15.55;3.60;;;;;;;;;;5082030;28;20056;-73
2023/01/11 06:02:05;;;;;;;21.42;5.20;;;;;;;;;;5075319;28;20063;-73
2023/01/11 06:04:32;;;;;;;18.63;5.28;;;;;;;;;;5080223;28;20076;-74
2023/01/11 06:06:58;;;;;;;15.15;3.53;;;;;;;;;;5083136;28;20052;-73
2023/01/11 06:09:24;;;;;;;16.20;3.22;;;;;;;;;;5083655;28;20114;-73
2023/01/11 06:11:51;;;;;;;21.88;3.75;;;;;;;;;;5084465;28;20454;-72
2023/01/11 06:14:17;;;;;;;20.10;4.35;;;;;;;;;;5084792;28;20147;-74
2023/01/11 06:16:43;;;;;;;21.58;3.35;;;;;;;;;;5082190;28;20135;-73
2023/01/11 06:19:10;;;;;;;16.80;3.90;;;;;;;;;;5084208;28;20299;-73
2023/01/11 06:21:37;;;;;;;17.90;3.53;;;;;;;;;;5086363;28;20506;-74
2023/01/11 06:24:04;;;;;;;13.05;3.42;;;;;;;;;;5082762;28;20100;-74
2023/01/11 06:26:31;;;;;;;21.80;4.05;;;;;;;;;;5084894;28;20549;-74
2023/01/11 06:28:57;;;;;;;20.38;3.50;;;;;;;;;;5082607;28;20066;-73
2023/01/11 06:31:23;;;;;;;24.25;4.07;;;;;;;;;;5081609;28;20430;-76
2023/01/11 06:33:50;;;;;;;16.58;3.20;;;;;;;;;;5084253;28;20552;-73
2023/01/11 06:36:16;;;;;;;17.20;3.65;;;;;;;;;;5082681;28;20571;-75
2023/01/11 06:38:43;;;;;;;19.92;2.85;;;;;;;;;;5084794;28;20135;-69
2023/01/11 06:41:10;;;;;;;20.33;3.05;;;;;;;;;;5083430;28;20114;-73
2023/01/11 06:43:39;;;;;;;14.98;3.33;;;;;;;;;;5082279;28;20048;-72
2023/01/11 06:46:09;;;;;;;16.08;3.28;;;;;;;;;;5077174;28;20051;-75
2023/01/11 06:48:35;;;;;;;12.55;2.65;;;;;;;;;;5059532;28;20044;-74
2023/01/11 06:51:01;;;;;;;25.27;3.58;;;;;;;;;;5083201;28;20049;-70
2023/01/11 06:53:28;;;;;;;8.80;2.88;;;;;;;;;;5083749;28;20076;-74
2023/01/11 06:55:55;;;;;;;11.80;3.00;;;;;;;;;;5084287;28;20059;-72
2023/01/11 06:58:22;;;;;;;10.57;2.03;;;;;;;;;;5082781;28;20544;-72
2023/01/11 07:00:50;;;;;;;11.82;2.15;;;;;;;;;;5082024;28;20056;-73
2023/01/11 07:03:16;;;;;;;17.27;3.03;;;;;;;;;;5082290;28;20458;-73
2023/01/11 07:05:43;;;;;;;14.00;2.40;;;;;;;;;;5085031;28;20131;-70
2023/01/11 07:08:10;;;;;;;12.40;2.65;;;;;;;;;;5084887;28;20053;-70
2023/01/11 07:10:37;;;;;;;10.45;2.30;;;;;;;;;;5083106;28;20048;-71
2023/01/11 07:13:03;;;;;;;16.10;2.40;;;;;;;;;;5079396;28;20056;-74
2023/01/11 07:15:29;;;;;;;7.47;1.80;;;;;;;;;;5084008;28;20052;-72
2023/01/11 07:17:56;;;;;;;12.48;2.40;;;;;;;;;;5084021;28;20055;-74
2023/01/11 07:20:23;;;;;;;10.25;2.55;;;;;;;;;;5083178;28;20053;-71
2023/01/11 07:22:50;;;;;;;17.50;2.00;;;;;;;;;;5081502;28;20049;-75
2023/01/11 07:25:17;;;;;;;14.40;2.28;;;;;;;;;;5087026;28;20067;-76
2023/01/11 07:27:43;;;;;;;12.43;2.22;;;;;;;;;;5081977;28;20613;-72
2023/01/11 07:30:10;;;;;;;14.25;2.70;;;;;;;;;;5082651;28;20056;-70
2023/01/11 07:32:36;;;;;;;12.23;2.17;;;;;;;;;;5083840;28;20084;-73
2023/01/11 07:35:03;;;;;;;13.15;2.67;;;;;;;;;;5086253;28;20048;-73
2023/01/11 07:37:31;;;;;;;11.63;2.20;;;;;;;;;;5082336;28;20056;-72
2023/01/11 07:39:58;;;;;;;14.57;2.20;;;;;;;;;;5082074;28;20097;-76
2023/01/11 07:45:09;;;;;;;16.08;3.30;;;;;;;;;;5083950;28;20049;-76
2023/01/11 07:47:35;;;;;;;8.15;2.17;;;;;;;;;;5084440;28;20051;-72
2023/01/11 07:50:02;;;;;;;20.05;3.28;;;;;;;;;;5084041;28;20052;-73
2023/01/11 07:52:28;;;;;;;14.95;2.33;;;;;;;;;;5081636;28;20053;-71
2023/01/11 07:55:01;;;;;;;17.52;2.75;;;;;;;;;;5083643;28;20605;-70
2023/01/11 07:57:30;;;;;;;13.85;2.13;;;;;;;;;;5083320;28;20054;-70
2023/01/11 07:59:56;;;;;;;17.50;3.00;;;;;;;;;;5084051;28;20133;-73
2023/01/11 08:02:22;;;;;;;23.83;3.90;;;;;;;;;;5083960;28;20095;-72
2023/01/11 08:04:49;;;;;;;14.60;2.30;;;;;;;;;;5084015;28;20045;-69
2023/01/11 08:07:15;;;;;;;9.68;2.08;;;;;;;;;;5083223;28;20119;-72
2023/01/11 08:09:42;;;;;;;16.60;3.42;;;;;;;;;;5083671;28;20044;-72
2023/01/11 08:14:53;;;;;;;12.27;2.40;;;;;;;;;;5083980;28;20056;-75
2023/01/11 08:17:19;;;;;;;14.20;2.53;;;;;;;;;;5083686;28;20056;-72
2023/01/11 08:19:45;;;;;;;20.08;2.78;;;;;;;;;;5083920;28;20059;-70
2023/01/11 08:22:12;;;;;;;13.50;2.33;;;;;;;;;;5082987;28;20135;-70
2023/01/11 08:24:39;;;;;;;22.77;3.95;;;;;;;;;;5084141;28;20486;-74
2023/01/11 08:27:05;;;;;;;11.68;2.33;;;;;;;;;;5083573;28;20503;-70
2023/01/11 08:29:32;;;;;;;15.10;2.65;;;;;;;;;;5083449;28;20053;-70
2023/01/11 08:31:59;;;;;;;18.70;3.53;;;;;;;;;;5083147;28;20092;-71
2023/01/11 08:34:29;;;;;;;14.43;2.45;;;;;;;;;;5082748;28;20108;-72
2023/01/11 08:36:56;;;;;;;14.25;3.05;;;;;;;;;;5082892;28;20053;-71
2023/01/11 08:39:23;;;;;;;20.13;3.05;;;;;;;;;;5083914;28;20059;-73
2023/01/11 08:41:49;;;;;;;16.88;2.60;;;;;;;;;;5085560;28;20059;-71
2023/01/11 08:44:16;;;;;;;15.90;2.90;;;;;;;;;;5087343;28;20164;-72
2023/01/11 08:46:58;;;;;;;14.77;2.92;;;;;;;;;;5071038;28;20107;-74
2023/01/11 08:49:24;;;;;;;23.48;3.70;;;;;;;;;;5086096;28;20056;-71
2023/01/11 08:51:50;;;;;;;13.43;2.38;;;;;;;;;;5083179;28;20568;-70
2023/01/11 08:54:17;;;;;;;9.75;2.58;;;;;;;;;;5066604;28;20067;-73
2023/01/11 08:56:43;;;;;;;14.77;2.20;;;;;;;;;;5075223;28;20408;-74
2023/01/11 08:59:10;;;;;;;18.02;2.83;;;;;;;;;;5087859;28;20041;-74
2023/01/11 09:01:36;;;;;;;18.13;3.60;;;;;;;;;;5087826;28;20057;-74
2023/01/11 09:04:04;;;;;;;12.75;2.35;;;;;;;;;;5086856;28;20106;-75
2023/01/11 09:06:48;;;;;;;11.80;2.58;;;;;;;;;;5085674;28;20118;-73
2023/01/11 09:09:15;;;;;;;18.33;3.28;;;;;;;;;;5086031;28;20045;-72
2023/01/11 09:11:54;;;;;;;15.73;2.72;;;;;;;;;;5086772;28;20052;-73
2023/01/11 09:14:20;;;;;;;17.60;2.63;;;;;;;;;;5086960;28;20056;-73
2023/01/11 09:16:47;;;;;;;16.85;2.70;;;;;;;;;;5068429;28;20052;-70
2023/01/11 09:19:14;;;;;;;14.30;2.95;;;;;;;;;;5087857;28;20514;-72
2023/01/11 09:21:40;;;;;;;21.45;3.97;;;;;;;;;;5087565;28;20053;-71
2023/01/11 09:24:07;;;;;;;18.05;3.85;;;;;;;;;;5069911;28;20052;-72
2023/01/11 09:26:34;;;;;;;24.58;4.32;;;;;;;;;;5085449;28;20044;-71
2023/01/11 09:29:00;;;;;;;21.50;2.47;;;;;;;;;;5085951;28;20087;-68
2023/01/11 09:31:27;;;;;;;15.57;3.28;;;;;;;;;;5083562;28;20265;-69
2023/01/11 09:33:54;;;;;;;17.42;3.33;;;;;;;;;;5084484;28;20055;-74
2023/01/11 09:36:21;;;;;;;23.75;3.30;;;;;;;;;;5086994;28;20053;-72
2023/01/11 09:38:49;;;;;;;19.42;3.25;;;;;;;;;;5086607;28;20143;-73
2023/01/11 09:41:18;;;;;;;8.88;2.80;;;;;;;;;;5084757;28;20143;-74
2023/01/11 09:43:49;;;;;;;8.13;1.77;;;;;;;;;;5083308;28;20060;-73
2023/01/11 09:46:17;;;;;;;16.00;2.72;;;;;;;;;;5085571;28;20048;-72
2023/01/11 09:48:46;;;;;;;17.90;4.25;;;;;;;;;;5082864;28;20454;-72
2023/01/11 09:51:17;;;;;;;24.90;3.40;;;;;;;;;;5079010;28;20179;-70
2023/01/11 09:53:48;;;;;;;18.30;3.00;;;;;;;;;;5085387;28;20060;-72
2023/01/11 09:56:22;;;;;;;14.43;3.03;;;;;;;;;;5084160;28;20045;-72
2023/01/11 09:59:21;;;;;;;17.02;3.40;;;;;;;;;;5086189;28;20143;-72
2023/01/11 10:02:10;;;;;;;24.98;3.47;;;;;;;;;;5035919;28;20060;-74
2023/01/11 10:04:57;;;;;;;16.17;2.70;;;;;;;;;;5064990;28;20057;-74
2023/01/11 10:07:30;;;;;;;22.02;2.83;;;;;;;;;;5082318;28;20041;-73
2023/01/11 10:10:03;;;;;;;21.83;4.03;;;;;;;;;;5083139;28;20431;-73
2023/01/11 10:13:03;;;;;;;21.30;3.40;;;;;;;;;;5078718;28;20056;-73
2023/01/11 10:15:50;;;;;;;23.05;4.03;;;;;;;;;;5084845;28;20153;-71
2023/01/11 10:19:05;;;;;;;19.95;2.72;;;;;;;;;;5079654;28;20513;-72
2023/01/11 10:21:57;;;;;;;20.75;2.75;;;;;;;;;;5080169;28;20129;-73
2023/01/11 10:24:29;;;;;;;18.15;2.38;;;;;;;;;;5084841;28;20048;-70
2023/01/11 10:27:00;;;;;;;13.18;3.72;;;;;;;;;;5082484;28;20052;-72
2023/01/11 10:32:42;;;;;;;23.33;3.25;;;;;;;;;;5084152;28;20461;-73
2023/01/11 10:35:44;;;;;;;21.50;2.85;;;;;;;;;;5063759;28;20376;-71
2023/01/11 10:38:22;;;;;;;19.80;3.03;;;;;;;;;;5070701;28;20052;-71
2023/01/11 10:41:02;;;;;;;12.73;2.85;;;;;;;;;;5084817;28;20450;-72
2023/01/11 10:43:30;;;;;;;18.05;2.63;;;;;;;;;;5084128;28;20151;-73
2023/01/11 10:45:58;;;;;;;13.48;2.63;;;;;;;;;;5084382;28;20055;-73
2023/01/11 10:48:26;;;;;;;16.50;2.70;;;;;;;;;;5082138;28;20052;-73
2023/01/11 10:50:58;;;;;;;15.60;3.40;;;;;;;;;;5076961;28;20051;-73
2023/01/11 10:53:31;;;;;;;18.50;2.63;;;;;;;;;;5082338;28;20063;-73
2023/01/11 10:55:58;;;;;;;20.30;3.13;;;;;;;;;;5080705;28;20052;-73
2023/01/11 10:58:30;;;;;;;17.60;3.30;;;;;;;;;;5082679;28;20052;-71
2023/01/11 11:01:19;;;;;;;18.48;3.05;;;;;;;;;;5082432;28;20063;-70
2023/01/11 11:03:45;;;;;;;22.73;3.33;;;;;;;;;;5081782;28;20469;-72
2023/01/11 11:06:11;;;;;;;17.73;3.47;;;;;;;;;;5084049;28;20060;-72
2023/01/11 11:08:41;;;;;;;13.70;2.08;;;;;;;;;;5084087;28;20514;-74
2023/01/11 11:11:17;;;;;;;12.45;2.03;;;;;;;;;;5075034;28;20051;-70
2023/01/11 11:14:01;;;;;;;16.15;3.45;;;;;;;;;;5083440;28;20056;-73
2023/01/11 11:16:30;;;;;;;19.08;3.15;;;;;;;;;;5081998;28;20059;-72
2023/01/11 11:18:57;;;;;;;15.00;3.55;;;;;;;;;;5084022;28;20083;-70
2023/01/11 11:21:29;;;;;;;16.65;3.67;;;;;;;;;;5081475;28;20063;-72
2023/01/11 11:24:26;;;;;;;7.75;1.80;;;;;;;;;;5083418;28;20051;-71
2023/01/11 11:26:56;;;;;;;15.98;2.53;;;;;;;;;;5060661;28;20045;-71
2023/01/11 11:29:29;;;;;;;15.68;3.38;;;;;;;;;;5083510;28;20106;-71
2023/01/11 11:31:57;;;;;;;16.67;2.33;;;;;;;;;;5083718;28;20524;-70
2023/01/11 11:34:26;;;;;;;19.08;3.92;;;;;;;;;;5065868;28;20079;-71
2023/01/11 11:36:52;;;;;;;18.10;2.35;;;;;;;;;;5083474;28;20052;-73
2023/01/11 11:39:24;;;;;;;10.15;2.08;;;;;;;;;;5083928;28;20514;-72
2023/01/11 11:41:51;;;;;;;14.40;2.25;;;;;;;;;;5082650;28;20063;-72
2023/01/11 11:44:25;;;;;;;20.63;4.00;;;;;;;;;;5077283;28;20510;-71
2023/01/11 11:46:58;;;;;;;12.68;3.05;;;;;;;;;;5083174;28;20076;-70
2023/01/11 11:49:25;;;;;;;16.08;2.47;;;;;;;;;;5082975;28;20130;-72
2023/01/11 11:51:52;;;;;;;22.75;3.13;;;;;;;;;;5081785;28;20094;-73
2023/01/11 11:54:33;;;;;;;14.88;2.72;;;;;;;;;;5073711;28;20095;-72
2023/01/11 11:57:11;;;;;;;14.88;2.97;;;;;;;;;;5083674;28;20078;-73
2023/01/11 11:59:43;;;;;;;17.83;2.83;;;;;;;;;;5075475;28;20131;-74
2023/01/11 12:02:17;;;;;;;19.50;3.22;;;;;;;;;;5081495;28;20518;-73
2023/01/11 12:04:47;;;;;;;22.33;3.07;;;;;;;;;;5068264;28;20060;-71
2023/01/11 12:07:16;;;;;;;13.98;3.45;;;;;;;;;;5082407;28;20260;-74
2023/01/11 12:09:47;;;;;;;6.78;1.80;;;;;;;;;;5082104;28;20061;-70
2023/01/11 12:12:15;;;;;;;10.82;2.63;;;;;;;;;;5082926;28;20056;-75
2023/01/11 12:14:41;;;;;;;18.23;2.45;;;;;;;;;;5083693;28;20051;-70
2023/01/11 12:17:24;;;;;;;15.23;3.08;;;;;;;;;;5088261;28;20089;-76
2023/01/11 12:19:50;;;;;;;17.80;3.25;;;;;;;;;;5084652;28;20123;-76
2023/01/11 12:22:18;;;;;;;14.75;3.17;;;;;;;;;;5085702;28;20477;-77
2023/01/11 12:24:46;;;;;;;8.73;2.33;;;;;;;;;;5086913;28;20048;-75
2023/01/11 12:27:19;;;;;;;19.23;3.17;;;;;;;;;;5084385;28;20045;-69
2023/01/11 12:29:50;;;;;;;21.67;3.08;;;;;;;;;;5076386;28;20076;-76
2023/01/11 12:32:31;;;;;;;22.02;2.72;;;;;;;;;;5083847;28;20060;-76
2023/01/11 12:35:07;;;;;;;12.60;2.88;;;;;;;;;;5085542;28;20117;-75
2023/01/11 12:37:43;;;;;;;15.88;3.10;;;;;;;;;;5086597;28;20063;-76
2023/01/11 12:40:09;;;;;;;;;;;;;;;;;;5086130;28;20061;-71
2023/01/11 12:42:35;;;;;;;18.63;3.53;;;;;;;;;;5085137;28;45127;-76
2023/01/11 12:45:15;;;;;;;17.95;2.38;;;;;;;;;;5086417;28;20052;-77
2023/01/11 12:47:42;;;;;;;12.60;2.35;;;;;;;;;;5085577;28;20048;-72
2023/01/11 12:50:14;;;;;;;13.63;2.88;;;;;;;;;;5086261;28;20102;-74
2023/01/11 12:52:46;;;;;;;10.90;2.90;;;;;;;;;;5081139;28;20053;-68
2023/01/11 12:55:14;;;;;;;14.20;2.08;;;;;;;;;;5084412;28;20053;-70
2023/01/11 12:58:07;;;;;;;14.82;2.15;;;;;;;;;;5086951;28;20057;-72
2023/01/11 13:00:51;;;;;;;12.70;2.58;;;;;;;;;;5067284;28;20048;-71
2023/01/11 13:03:25;;;;;;;23.10;3.28;;;;;;;;;;5086519;28;20144;-72
2023/01/11 13:05:59;;;;;;;20.38;2.63;;;;;;;;;;5085477;28;20075;-75
2023/01/11 13:08:39;;;;;;;11.45;3.25;;;;;;;;;;5086210;28;20071;-78
2023/01/11 13:11:05;;;;;;;15.10;2.00;;;;;;;;;;5085787;28;20048;-73
2023/01/11 13:13:47;;;;;;;16.42;2.33;;;;;;;;;;5086542;28;20075;-74
2023/01/11 13:16:22;;;;;;;13.27;1.85;;;;;;;;;;5083659;28;20186;-75
2023/01/11 13:18:56;;;;;;;17.67;6.30;;;;;;;;;;5086357;28;20052;-73
2023/01/11 13:21:25;;;;;;;22.00;4.60;;;;;;;;;;5085281;28;20561;-74
2023/01/11 13:23:53;;;;;;;18.00;3.08;;;;;;;;;;5086532;28;20055;-71
2023/01/11 13:26:28;;;;;;;10.55;2.88;;;;;;;;;;5085360;28;20091;-72
2023/01/11 13:29:02;;;;;;;17.88;3.05;;;;;;;;;;5088141;28;20423;-74
2023/01/11 13:31:31;;;;;;;10.50;2.60;;;;;;;;;;5084490;28;20047;-73
2023/01/11 13:34:00;;;;;;;12.98;3.17;;;;;;;;;;5086821;28;20234;-72
2023/01/11 13:36:31;;;;;;;10.48;2.30;;;;;;;;;;5087762;28;20040;-76
2023/01/11 13:39:03;;;;;;;13.00;2.88;;;;;;;;;;5085063;28;20057;-75
2023/01/11 13:41:33;;;;;;;18.00;3.17;;;;;;;;;;5085857;28;20048;-77
2023/01/11 13:44:08;;;;;;;9.93;2.20;;;;;;;;;;5086463;28;20048;-77
2023/01/11 13:46:42;;;;;;;19.25;2.20;;;;;;;;;;5083482;28;20106;-76
2023/01/11 13:49:15;;;;;;;14.95;3.17;;;;;;;;;;5083980;28;20067;-71
2023/01/11 13:52:01;;;;;;;14.73;3.13;;;;;;;;;;5079096;28;20479;-72
2023/01/11 13:54:37;;;;;;;13.82;3.00;;;;;;;;;;5088364;28;20052;-74
2023/01/11 13:57:07;;;;;;;20.90;4.93;;;;;;;;;;5086630;28;20147;-74
2023/01/11 13:59:37;;;;;;;13.57;2.42;;;;;;;;;;5086088;28;20144;-71
2023/01/11 14:02:21;;;;;;;18.95;2.33;;;;;;;;;;5082852;28;20250;-71
2023/01/11 14:04:51;;;;;;;15.60;3.05;;;;;;;;;;5083624;28;20050;-75
2023/01/11 14:07:22;;;;;;;8.88;2.50;;;;;;;;;;5083244;28;20110;-72
2023/01/11 14:10:04;;;;;;;14.45;2.78;;;;;;;;;;5086601;28;20054;-72
2023/01/11 14:12:49;;;;;;;10.38;3.05;;;;;;;;;;5082095;28;20596;-71
2023/01/11 14:15:31;;;;;;;15.07;2.28;;;;;;;;;;5071231;28;20060;-71
2023/01/11 14:18:07;;;;;;;11.98;2.88;;;;;;;;;;5082147;28;20051;-72
2023/01/11 14:20:52;;;;;;;11.48;2.90;;;;;;;;;;5083992;28;20560;-75
2023/01/11 14:23:20;;;;;;;8.35;2.13;;;;;;;;;;5085498;28;20171;-75
2023/01/11 14:25:46;;;;;;;10.80;3.40;;;;;;;;;;5085016;28;20074;-74
2023/01/11 14:28:13;;;;;;;18.10;2.72;;;;;;;;;;5085090;28;20056;-71
2023/01/11 14:30:48;;;;;;;17.83;3.13;;;;;;;;;;5069230;28;20056;-76
2023/01/11 14:33:33;;;;;;;15.88;2.40;;;;;;;;;;5065914;28;20055;-75
2023/01/11 14:36:08;;;;;;;19.87;3.80;;;;;;;;;;5071313;28;20493;-77
2023/01/11 14:38:41;;;;;;;17.55;3.20;;;;;;;;;;5084729;28;20765;-76
2023/01/11 14:41:23;;;;;;;16.08;3.67;;;;;;;;;;5084537;28;20083;-75
2023/01/11 14:44:04;;;;;;;15.50;2.90;;;;;;;;;;5084136;28;20515;-73
2023/01/11 14:46:50;;;;;;;23.70;3.53;;;;;;;;;;5080523;28;20053;-74
2023/01/11 14:49:16;;;;;;;17.73;3.05;;;;;;;;;;5084472;28;20087;-72
2023/01/11 14:51:42;;;;;;;11.80;3.10;;;;;;;;;;5080053;28;20063;-71
2023/01/11 14:54:11;;;;;;;15.13;2.58;;;;;;;;;;5085954;28;20179;-75
2023/01/11 14:56:40;;;;;;;14.02;3.45;;;;;;;;;;5085175;28;20110;-75
2023/01/11 14:59:22;;;;;;;22.13;2.60;;;;;;;;;;5080235;28;20588;-76
2023/01/11 15:02:18;;;;;;;16.27;2.45;;;;;;;;;;5069742;28;21337;-76
2023/01/11 15:04:50;;;;;;;14.90;2.35;;;;;;;;;;5066272;28;20536;-74
2023/01/11 15:07:21;;;;;;;13.70;2.35;;;;;;;;;;5076518;28;20048;-76
2023/01/11 15:09:50;;;;;;;13.80;2.20;;;;;;;;;;5081132;28;20049;-72
2023/01/11 15:12:18;;;;;;;20.23;3.05;;;;;;;;;;5062717;28;20053;-74
2023/01/11 15:14:46;;;;;;;11.68;3.13;;;;;;;;;;5081194;28;20068;-75
2023/01/11 15:20:12;;;;;;;14.57;2.30;;;;;;;;;;5078973;28;20679;-76
2023/01/11 15:22:39;;;;;;;17.90;3.33;;;;;;;;;;5080670;28;20095;-74